createdAt,value
2023-05-19T00:00:34.359Z,105.28
2023-05-19T00:01:34.275Z,103.82
2023-05-19T00:02:34.401Z,105.43
2023-05-19T00:03:34.392Z,105.27
2023-05-19T00:04:34.404Z,104.63
2023-05-19T00:05:34.489Z,104.42
2023-05-19T00:06:34.531Z,104.96
2023-05-19T00:07:34.572Z,106.03
2023-05-19T00:08:34.657Z,104.21
2023-05-19T00:09:34.670Z,104.96
2023-05-19T00:10:34.758Z,104.18
2023-05-19T00:11:34.757Z,104.06
2023-05-19T00:12:34.821Z,103.51
2023-05-19T00:13:34.813Z,102.14
2023-05-19T00:14:34.840Z,103.66
2023-05-19T00:15:34.921Z,104.45
2023-05-19T00:16:35.067Z,104.98
2023-05-19T00:17:34.978Z,104.26
2023-05-19T00:18:35.023Z,105.09
2023-05-19T00:19:34.992Z,105.67
2023-05-19T00:20:35.074Z,107.30
2023-05-19T00:21:34.985Z,106.66
2023-05-19T00:22:34.970Z,107.16
2023-05-19T00:23:35.004Z,107.73
2023-05-19T00:24:35.015Z,108.74
2023-05-19T00:25:35.069Z,108.59
2023-05-19T00:26:35.141Z,109.58
2023-05-19T00:27:35.160Z,108.50
2023-05-19T00:28:35.140Z,106.49
2023-05-19T00:29:35.172Z,106.71
2023-05-19T00:30:35.143Z,105.44
2023-05-19T00:31:35.219Z,106.33
2023-05-19T00:32:35.227Z,105.51
2023-05-19T00:33:35.157Z,103.80
2023-05-19T00:34:35.119Z,103.83
2023-05-19T00:35:35.150Z,105.55
2023-05-19T00:36:35.145Z,105.86
2023-05-19T00:37:35.153Z,105.44
2023-05-19T00:38:35.183Z,104.35
2023-05-19T00:39:35.157Z,107.38
2023-05-19T00:40:35.231Z,104.51
2023-05-19T00:41:35.180Z,104.99
2023-05-19T00:42:35.146Z,107.19
2023-05-19T00:43:35.166Z,110.88
2023-05-19T00:44:35.162Z,109.87
2023-05-19T00:45:35.148Z,111.91
2023-05-19T00:46:35.194Z,110.14
2023-05-19T00:47:35.239Z,110.71
2023-05-19T00:48:35.177Z,113.45
2023-05-19T00:49:35.152Z,111.45
2023-05-19T00:50:35.268Z,112.41
2023-05-19T00:51:35.146Z,113.33
2023-05-19T00:52:35.177Z,115.13
2023-05-19T00:53:35.240Z,116.73
2023-05-19T00:54:35.262Z,116.88
2023-05-19T00:55:35.321Z,118.30
2023-05-19T00:56:35.334Z,118.53
2023-05-19T00:57:35.306Z,119.72
2023-05-19T00:58:35.281Z,120.98
2023-05-19T00:59:35.297Z,121.81
2023-05-19T01:00:35.506Z,121.79
2023-05-19T01:01:35.414Z,120.55
2023-05-19T01:02:35.451Z,120.57
2023-05-19T01:03:35.728Z,121.02
2023-05-19T01:04:35.333Z,120.08
2023-05-19T01:05:35.320Z,120.52
2023-05-19T01:06:35.333Z,121.47
2023-05-19T01:07:35.321Z,121.35
2023-05-19T01:08:35.299Z,119.36
2023-05-19T01:09:35.347Z,122.16
2023-05-19T01:10:35.314Z,121.53
2023-05-19T01:11:35.339Z,122.08
2023-05-19T01:12:35.352Z,123.59
2023-05-19T01:13:35.313Z,121.86
2023-05-19T01:14:35.332Z,120.62
2023-05-19T01:15:35.348Z,120.32
2023-05-19T01:16:35.435Z,121.85
2023-05-19T01:17:35.398Z,120.42
2023-05-19T01:18:35.393Z,120.80
2023-05-19T01:19:35.402Z,121.99
2023-05-19T01:20:35.402Z,117.98
2023-05-19T01:21:35.428Z,121.37
2023-05-19T01:22:35.420Z,119.75
2023-05-19T01:23:35.410Z,120.13
2023-05-19T01:24:35.436Z,119.65
2023-05-19T01:25:35.445Z,119.56
2023-05-19T01:26:35.415Z,120.02
2023-05-19T01:27:35.464Z,121.00
2023-05-19T01:28:35.412Z,122.47
2023-05-19T01:29:35.419Z,122.32
2023-05-19T01:30:35.524Z,123.13
2023-05-19T01:31:35.449Z,121.94
2023-05-19T01:32:35.479Z,122.04
2023-05-19T01:33:35.437Z,121.78
2023-05-19T01:34:35.427Z,121.17
2023-05-19T01:35:35.434Z,120.52
2023-05-19T01:36:35.431Z,119.59
2023-05-19T01:37:35.477Z,121.20
2023-05-19T01:38:35.466Z,121.49
2023-05-19T01:39:35.516Z,123.85
2023-05-19T01:40:35.484Z,122.25
2023-05-19T01:41:35.484Z,122.58
2023-05-19T01:42:35.516Z,122.37
2023-05-19T01:43:35.524Z,123.30
2023-05-19T01:44:35.530Z,122.60
2023-05-19T01:45:35.538Z,121.28
2023-05-19T01:46:35.822Z,123.73
2023-05-19T01:47:35.544Z,122.10
2023-05-19T01:48:35.533Z,121.58
2023-05-19T01:49:35.524Z,121.86
2023-05-19T01:50:35.527Z,121.08
2023-05-19T01:51:35.520Z,122.22
2023-05-19T01:52:35.543Z,120.60
2023-05-19T01:53:35.521Z,121.75
2023-05-19T01:54:35.543Z,120.58
2023-05-19T01:55:35.537Z,121.16
2023-05-19T01:56:35.536Z,121.34
2023-05-19T01:57:35.519Z,121.30
2023-05-19T01:58:35.502Z,119.68
2023-05-19T01:59:35.540Z,121.91
2023-05-19T02:00:35.523Z,121.56
2023-05-19T02:01:35.565Z,118.52
2023-05-19T02:02:35.624Z,117.59
2023-05-19T02:03:35.518Z,119.60
2023-05-19T02:04:35.547Z,120.32
2023-05-19T02:05:35.561Z,121.72
2023-05-19T02:06:35.559Z,123.03
2023-05-19T02:07:35.544Z,121.39
2023-05-19T02:08:35.534Z,121.77
2023-05-19T02:09:35.529Z,122.45
2023-05-19T02:10:35.534Z,122.82
2023-05-19T02:11:35.525Z,122.03
2023-05-19T02:12:35.536Z,123.93
2023-05-19T02:13:35.543Z,122.88
2023-05-19T02:14:35.552Z,122.90
2023-05-19T02:15:35.557Z,122.97
2023-05-19T02:16:35.546Z,122.11
2023-05-19T02:17:35.596Z,122.75
2023-05-19T02:18:35.580Z,125.33
2023-05-19T02:19:35.585Z,125.57
2023-05-19T02:20:35.661Z,125.89
2023-05-19T02:21:35.612Z,126.33
2023-05-19T02:22:35.618Z,123.85
2023-05-19T02:23:35.621Z,126.48
2023-05-19T02:24:35.608Z,126.18
2023-05-19T02:25:35.621Z,126.34
2023-05-19T02:26:35.636Z,125.53
2023-05-19T02:27:35.616Z,128.36
2023-05-19T02:28:35.630Z,127.60
2023-05-19T02:29:35.657Z,129.59
2023-05-19T02:30:35.668Z,130.25
2023-05-19T02:31:35.728Z,130.09
2023-05-19T02:32:35.700Z,131.52
2023-05-19T02:33:35.673Z,130.52
2023-05-19T02:34:35.689Z,130.95
2023-05-19T02:35:35.743Z,128.91
2023-05-19T02:36:35.715Z,132.42
2023-05-19T02:37:35.748Z,132.34
2023-05-19T02:38:35.711Z,130.44
2023-05-19T02:39:35.727Z,129.42
2023-05-19T02:40:35.713Z,131.26
2023-05-19T02:41:35.758Z,131.72
2023-05-19T02:42:35.765Z,132.99
2023-05-19T02:43:35.794Z,133.86
2023-05-19T02:44:35.804Z,131.56
2023-05-19T02:45:35.827Z,133.10
2023-05-19T02:46:35.878Z,133.70
2023-05-19T02:47:37.090Z,135.31
2023-05-19T02:48:35.856Z,134.23
2023-05-19T02:49:35.985Z,134.97
2023-05-19T02:50:35.868Z,135.20
2023-05-19T02:51:35.891Z,137.02
2023-05-19T02:52:35.962Z,139.97
2023-05-19T02:53:35.944Z,137.97
2023-05-19T02:54:35.966Z,137.63
2023-05-19T02:55:36.003Z,139.26
2023-05-19T02:56:36.017Z,140.35
2023-05-19T02:57:36.078Z,140.06
2023-05-19T02:58:36.024Z,142.21
2023-05-19T02:59:36.069Z,143.21
2023-05-19T03:00:36.081Z,146.61
2023-05-19T03:01:36.197Z,148.81
2023-05-19T03:02:36.223Z,147.05
2023-05-19T03:03:36.294Z,148.28
2023-05-19T03:04:36.189Z,150.51
2023-05-19T03:05:36.206Z,149.89
2023-05-19T03:06:36.238Z,151.18
2023-05-19T03:07:36.254Z,151.17
2023-05-19T03:08:36.281Z,153.34
2023-05-19T03:09:36.305Z,153.02
2023-05-19T03:10:36.323Z,154.51
2023-05-19T03:11:36.354Z,154.14
2023-05-19T03:12:36.349Z,156.03
2023-05-19T03:13:36.364Z,156.23
2023-05-19T03:14:36.363Z,157.11
2023-05-19T03:15:36.401Z,157.69
2023-05-19T03:16:36.518Z,159.31
2023-05-19T03:17:36.533Z,161.12
2023-05-19T03:18:36.534Z,160.91
2023-05-19T03:19:36.454Z,162.63
2023-05-19T03:20:36.515Z,163.51
2023-05-19T03:21:36.549Z,164.48
2023-05-19T03:22:36.549Z,162.58
2023-05-19T03:23:36.590Z,163.22
2023-05-19T03:24:36.624Z,165.99
2023-05-19T03:25:36.691Z,164.24
2023-05-19T03:26:36.724Z,164.49
2023-05-19T03:27:36.751Z,165.57
2023-05-19T03:28:36.814Z,164.44
2023-05-19T03:29:36.871Z,166.99
2023-05-19T03:30:36.941Z,165.09
2023-05-19T03:31:36.992Z,166.30
2023-05-19T03:32:37.075Z,163.80
2023-05-19T03:33:37.052Z,164.86
2023-05-19T03:34:37.074Z,164.04
2023-05-19T03:35:37.111Z,162.75
2023-05-19T03:36:37.181Z,162.37
2023-05-19T03:37:37.189Z,163.84
2023-05-19T03:38:37.257Z,162.93
2023-05-19T03:39:37.293Z,165.46
2023-05-19T03:40:37.374Z,166.21
2023-05-19T03:41:37.399Z,169.31
2023-05-19T03:42:37.429Z,166.41
2023-05-19T03:43:37.469Z,169.94
2023-05-19T03:44:37.527Z,169.16
2023-05-19T03:45:37.650Z,170.49
2023-05-19T03:46:37.665Z,171.90
2023-05-19T03:47:37.728Z,172.57
2023-05-19T03:48:37.758Z,171.17
2023-05-19T03:49:37.777Z,170.79
2023-05-19T03:50:37.836Z,170.99
2023-05-19T03:51:37.911Z,172.50
2023-05-19T03:52:37.927Z,170.54
2023-05-19T03:53:37.980Z,171.02
2023-05-19T03:54:38.037Z,172.58
2023-05-19T03:55:38.067Z,172.46
2023-05-19T03:56:38.112Z,171.38
2023-05-19T03:57:38.114Z,172.74
2023-05-19T03:58:38.161Z,172.54
2023-05-19T03:59:38.182Z,174.60
2023-05-19T04:00:38.182Z,172.71
2023-05-19T04:01:38.268Z,175.04
2023-05-19T04:02:38.398Z,173.04
2023-05-19T04:03:38.311Z,175.84
2023-05-19T04:04:38.305Z,173.78
2023-05-19T04:05:38.317Z,174.38
2023-05-19T04:06:38.341Z,174.65
2023-05-19T04:07:38.313Z,176.82
2023-05-19T04:08:38.379Z,177.17
2023-05-19T04:09:38.414Z,176.77
2023-05-19T04:10:38.427Z,177.42
2023-05-19T04:11:38.455Z,174.45
2023-05-19T04:12:38.443Z,176.84
2023-05-19T04:13:38.528Z,178.51
2023-05-19T04:14:38.544Z,176.91
2023-05-19T04:15:38.576Z,178.02
2023-05-19T04:16:38.595Z,177.82
2023-05-19T04:17:38.664Z,178.38
2023-05-19T04:18:38.684Z,179.80
2023-05-19T04:19:38.686Z,180.60
2023-05-19T04:20:38.724Z,182.29
2023-05-19T04:21:38.715Z,182.65
2023-05-19T04:22:38.732Z,183.73
2023-05-19T04:23:38.778Z,187.41
2023-05-19T04:24:38.887Z,186.59
2023-05-19T04:25:38.812Z,189.78
2023-05-19T04:26:38.851Z,190.81
2023-05-19T04:27:38.931Z,192.88
2023-05-19T04:28:38.868Z,193.14
2023-05-19T04:29:38.865Z,193.09
2023-05-19T04:30:38.920Z,196.36
2023-05-19T04:31:38.990Z,195.00
2023-05-19T04:32:38.991Z,197.42
2023-05-19T04:33:39.008Z,199.57
2023-05-19T04:34:39.017Z,199.16
2023-05-19T04:35:39.063Z,199.12
2023-05-19T04:36:39.062Z,199.42
2023-05-19T04:37:39.127Z,199.81
2023-05-19T04:38:39.133Z,199.14
2023-05-19T04:39:39.161Z,198.29
2023-05-19T04:40:39.192Z,198.11
2023-05-19T04:41:39.312Z,197.13
2023-05-19T04:42:39.232Z,194.45
2023-05-19T04:43:39.234Z,197.05
2023-05-19T04:44:39.306Z,196.42
2023-05-19T04:45:39.290Z,198.34
2023-05-19T04:46:39.344Z,197.74
2023-05-19T04:47:39.393Z,199.91
2023-05-19T04:48:39.386Z,199.92
2023-05-19T04:49:39.439Z,199.29
2023-05-19T04:50:39.475Z,199.51
2023-05-19T04:51:39.491Z,199.52
2023-05-19T04:52:39.545Z,199.61
2023-05-19T04:53:39.579Z,199.88
2023-05-19T04:54:39.631Z,200.00
2023-05-19T04:55:39.660Z,200.17
2023-05-19T04:56:39.718Z,200.00
2023-05-19T04:57:39.741Z,200.01
2023-05-19T04:58:41.905Z,199.68
2023-05-19T04:59:39.843Z,199.58
2023-05-19T05:00:39.916Z,199.24
2023-05-19T05:01:40.030Z,198.11
2023-05-19T05:02:40.009Z,197.95
2023-05-19T05:03:40.096Z,199.54
2023-05-19T05:04:40.015Z,200.74
2023-05-19T05:05:40.049Z,198.78
2023-05-19T05:06:40.053Z,199.80
2023-05-19T05:07:40.075Z,199.04
2023-05-19T05:08:40.138Z,196.45
2023-05-19T05:09:40.156Z,197.29
2023-05-19T05:10:40.149Z,196.57
2023-05-19T05:11:40.158Z,196.54
2023-05-19T05:12:40.181Z,197.43
2023-05-19T05:13:40.204Z,196.39
2023-05-19T05:14:40.319Z,197.59
2023-05-19T05:15:40.249Z,197.01
2023-05-19T05:16:40.341Z,196.79
2023-05-19T05:17:40.284Z,199.16
2023-05-19T05:18:42.222Z,198.36
2023-05-19T05:19:40.281Z,198.44
2023-05-19T05:20:40.296Z,198.11
2023-05-19T05:21:40.373Z,198.40
2023-05-19T05:22:40.266Z,199.23
2023-05-19T05:23:40.254Z,198.94
2023-05-19T05:24:40.276Z,198.14
2023-05-19T05:25:40.231Z,196.89
2023-05-19T05:26:40.224Z,197.11
2023-05-19T05:27:40.205Z,195.89
2023-05-19T05:28:40.190Z,195.04
2023-05-19T05:29:40.201Z,192.32
2023-05-19T05:30:40.183Z,191.63
2023-05-19T05:31:40.185Z,191.82
2023-05-19T05:32:40.265Z,190.59
2023-05-19T05:33:40.181Z,190.92
2023-05-19T05:34:40.145Z,190.78
2023-05-19T05:35:40.142Z,191.90
2023-05-19T05:36:40.140Z,192.14
2023-05-19T05:37:40.148Z,191.08
2023-05-19T05:38:40.150Z,191.50
2023-05-19T05:39:40.137Z,193.85
2023-05-19T05:40:40.137Z,194.12
2023-05-19T05:41:40.156Z,195.18
2023-05-19T05:42:40.103Z,193.82
2023-05-19T05:43:40.101Z,195.82
2023-05-19T05:44:40.101Z,195.22
2023-05-19T05:45:40.121Z,195.33
2023-05-19T05:46:40.063Z,197.69
2023-05-19T05:47:40.112Z,199.13
2023-05-19T05:48:40.058Z,197.78
2023-05-19T05:49:40.072Z,199.59
2023-05-19T05:50:40.052Z,198.24
2023-05-19T05:51:40.710Z,199.71
2023-05-19T05:52:40.052Z,199.57
2023-05-19T05:53:40.008Z,199.09
2023-05-19T05:54:40.025Z,198.17
2023-05-19T05:55:39.996Z,197.37
2023-05-19T05:56:40.019Z,198.24
2023-05-19T05:57:39.997Z,197.81
2023-05-19T05:58:40.010Z,198.62
2023-05-19T05:59:39.994Z,198.73
2023-05-19T06:00:39.965Z,197.85
2023-05-19T06:01:39.977Z,199.77
2023-05-19T06:02:40.082Z,197.09
2023-05-19T06:03:40.104Z,198.46
2023-05-19T06:04:39.941Z,197.12
2023-05-19T06:05:40.008Z,198.02
2023-05-19T06:06:39.944Z,196.11
2023-05-19T06:07:39.940Z,197.33
2023-05-19T06:08:39.936Z,197.79
2023-05-19T06:09:39.924Z,199.82
2023-05-19T06:10:39.952Z,198.57
2023-05-19T06:11:39.924Z,198.75
2023-05-19T06:12:39.865Z,199.01
2023-05-19T06:13:39.900Z,198.28
2023-05-19T06:14:39.899Z,198.61
2023-05-19T06:15:39.910Z,198.86
2023-05-19T06:16:40.024Z,198.83
2023-05-19T06:17:39.894Z,199.51
2023-05-19T06:18:39.882Z,200.00
2023-05-19T06:19:39.865Z,199.68
2023-05-19T06:20:39.832Z,200.00
2023-05-19T06:21:39.835Z,198.76
2023-05-19T06:22:39.817Z,199.88
2023-05-19T06:23:39.796Z,199.61
2023-05-19T06:24:39.814Z,199.57
2023-05-19T06:25:39.779Z,199.90
2023-05-19T06:26:39.807Z,199.37
2023-05-19T06:27:39.790Z,198.29
2023-05-19T06:28:39.765Z,199.36
2023-05-19T06:29:39.762Z,199.18
2023-05-19T06:30:39.752Z,199.93
2023-05-19T06:31:39.789Z,198.96
2023-05-19T06:32:39.767Z,199.22
2023-05-19T06:33:39.755Z,196.70
2023-05-19T06:34:39.717Z,197.31
2023-05-19T06:35:39.741Z,197.30
2023-05-19T06:36:39.728Z,196.02
2023-05-19T06:37:39.681Z,195.82
2023-05-19T06:38:39.691Z,195.26
2023-05-19T06:39:39.699Z,194.26
2023-05-19T06:40:39.676Z,195.32
2023-05-19T06:41:39.689Z,195.50
2023-05-19T06:42:39.670Z,196.18
2023-05-19T06:43:39.675Z,196.00
2023-05-19T06:44:39.674Z,195.48
2023-05-19T06:45:39.722Z,196.91
2023-05-19T06:46:39.725Z,197.76
2023-05-19T06:47:39.692Z,198.18
2023-05-19T06:48:39.681Z,197.10
2023-05-19T06:49:39.680Z,196.38
2023-05-19T06:50:39.665Z,195.02
2023-05-19T06:51:39.705Z,194.77
2023-05-19T06:52:39.732Z,194.34
2023-05-19T06:53:39.712Z,194.76
2023-05-19T06:54:39.716Z,194.78
2023-05-19T06:55:50.678Z,194.31
2023-05-19T06:56:40.748Z,194.36
2023-05-19T06:57:39.722Z,194.42
2023-05-19T06:58:39.724Z,194.51
2023-05-19T06:59:39.732Z,193.41
2023-05-19T07:00:39.678Z,192.52
2023-05-19T07:01:39.824Z,191.59
2023-05-19T07:02:39.726Z,191.57
2023-05-19T07:03:39.744Z,192.63
2023-05-19T07:04:39.677Z,192.51
2023-05-19T07:05:39.652Z,191.55
2023-05-19T07:06:39.633Z,191.05
2023-05-19T07:07:39.626Z,189.09
2023-05-19T07:08:39.633Z,185.38
2023-05-19T07:09:39.659Z,183.40
2023-05-19T07:10:39.670Z,181.05
2023-05-19T07:11:39.757Z,180.58
2023-05-19T07:12:39.757Z,178.85
2023-05-19T07:13:39.821Z,179.31
2023-05-19T07:14:39.835Z,179.82
2023-05-19T07:15:39.856Z,178.06
2023-05-19T07:16:39.933Z,178.38
2023-05-19T07:17:39.891Z,177.49
2023-05-19T07:18:39.931Z,177.68
2023-05-19T07:19:39.845Z,178.94
2023-05-19T07:20:39.835Z,180.83
2023-05-19T07:21:39.885Z,180.84
2023-05-19T07:22:40.006Z,181.40
2023-05-19T07:23:39.868Z,181.80
2023-05-19T07:24:39.877Z,181.85
2023-05-19T07:25:39.825Z,182.93
2023-05-19T07:26:39.848Z,182.71
2023-05-19T07:27:39.889Z,182.16
2023-05-19T07:28:41.600Z,182.47
2023-05-19T07:29:39.951Z,181.43
2023-05-19T07:30:39.967Z,181.12
2023-05-19T07:31:40.045Z,183.05
2023-05-19T07:32:40.081Z,182.80
2023-05-19T07:33:40.071Z,184.13
2023-05-19T07:34:40.128Z,185.19
2023-05-19T07:35:40.136Z,183.78
2023-05-19T07:36:40.163Z,183.52
2023-05-19T07:37:40.133Z,183.87
2023-05-19T07:38:40.188Z,184.48
2023-05-19T07:39:40.183Z,184.30
2023-05-19T07:40:40.179Z,182.87
2023-05-19T07:41:40.164Z,183.33
2023-05-19T07:42:40.196Z,184.91
2023-05-19T07:43:40.291Z,184.49
2023-05-19T07:44:40.262Z,185.79
2023-05-19T07:45:40.446Z,185.01
2023-05-19T07:46:40.400Z,184.39
2023-05-19T07:47:40.456Z,185.30
2023-05-19T07:48:40.496Z,185.87
2023-05-19T07:49:40.574Z,185.35
2023-05-19T07:50:40.578Z,185.77
2023-05-19T07:51:40.620Z,185.82
2023-05-19T07:52:40.632Z,186.96
2023-05-19T07:53:40.647Z,186.98
2023-05-19T07:54:40.639Z,187.32
2023-05-19T07:55:40.658Z,187.70
2023-05-19T07:56:40.660Z,188.86
2023-05-19T07:57:40.659Z,188.18
2023-05-19T07:58:40.661Z,187.71
2023-05-19T07:59:40.738Z,186.66
2023-05-19T08:00:40.668Z,186.07
2023-05-19T08:01:40.677Z,186.91
2023-05-19T08:02:40.740Z,188.36
2023-05-19T08:03:40.727Z,187.67
2023-05-19T08:04:40.730Z,188.23
2023-05-19T08:05:40.748Z,188.72
2023-05-19T08:06:40.714Z,189.18
2023-05-19T08:07:40.759Z,189.29
2023-05-19T08:08:40.780Z,191.19
2023-05-19T08:09:40.780Z,190.36
2023-05-19T08:10:40.802Z,190.00
2023-05-19T08:11:40.845Z,191.02
2023-05-19T08:12:40.874Z,190.18
2023-05-19T08:13:40.917Z,190.43
2023-05-19T08:14:40.975Z,190.30
2023-05-19T08:15:41.083Z,191.28
2023-05-19T08:16:41.052Z,191.18
2023-05-19T08:17:41.149Z,191.19
2023-05-19T08:18:41.142Z,192.30
2023-05-19T08:19:41.157Z,192.78
2023-05-19T08:20:41.253Z,193.69
2023-05-19T08:21:41.302Z,192.07
2023-05-19T08:22:41.355Z,193.67
2023-05-19T08:23:41.385Z,193.03
2023-05-19T08:24:41.444Z,192.08
2023-05-19T08:25:41.481Z,192.04
2023-05-19T08:26:41.512Z,191.91
2023-05-19T08:27:41.575Z,192.68
2023-05-19T08:28:42.192Z,193.57
2023-05-19T08:29:41.639Z,191.59
2023-05-19T08:30:41.689Z,191.86
2023-05-19T08:31:41.858Z,191.04
2023-05-19T08:32:41.867Z,188.55
2023-05-19T08:33:41.829Z,185.28
2023-05-19T08:34:41.897Z,184.25
2023-05-19T08:35:41.892Z,184.52
2023-05-19T08:36:41.934Z,185.23
2023-05-19T08:37:41.939Z,185.30
2023-05-19T08:38:41.974Z,184.68
2023-05-19T08:39:41.994Z,186.57
2023-05-19T08:40:42.070Z,186.44
2023-05-19T08:41:42.096Z,185.35
2023-05-19T08:42:42.116Z,186.02
2023-05-19T08:43:42.177Z,185.19
2023-05-19T08:44:42.242Z,184.84
2023-05-19T08:45:42.242Z,182.55
2023-05-19T08:46:42.318Z,183.58
2023-05-19T08:47:42.270Z,183.37
2023-05-19T08:48:42.277Z,181.33
2023-05-19T08:49:42.402Z,179.89
2023-05-19T08:50:42.333Z,179.44
2023-05-19T08:51:42.373Z,178.81
2023-05-19T08:52:42.384Z,179.95
2023-05-19T08:53:42.399Z,180.87
2023-05-19T08:54:42.372Z,181.54
2023-05-19T08:55:42.430Z,183.61
2023-05-19T08:56:42.437Z,182.96
2023-05-19T08:57:42.491Z,184.28
2023-05-19T08:58:42.479Z,185.36
2023-05-19T08:59:42.502Z,186.64
2023-05-19T09:00:42.550Z,187.94
2023-05-19T09:01:42.543Z,188.34
2023-05-19T09:02:50.620Z,189.00
2023-05-19T09:03:43.646Z,189.12
2023-05-19T09:04:42.611Z,189.43
2023-05-19T09:05:42.576Z,189.93
2023-05-19T09:06:42.565Z,191.44
2023-05-19T09:07:42.508Z,194.28
2023-05-19T09:08:42.594Z,195.13
2023-05-19T09:09:42.507Z,195.69
2023-05-19T09:10:42.493Z,196.72
2023-05-19T09:11:42.504Z,197.34
2023-05-19T09:12:42.478Z,199.44
2023-05-19T09:13:42.479Z,197.93
2023-05-19T09:14:42.444Z,199.70
2023-05-19T09:15:42.468Z,199.07
2023-05-19T09:16:42.474Z,199.73
2023-05-19T09:17:42.484Z,199.93
2023-05-19T09:18:42.505Z,199.97
2023-05-19T09:19:42.418Z,199.60
2023-05-19T09:20:42.456Z,199.01
2023-05-19T09:21:43.608Z,198.87
2023-05-19T09:22:42.460Z,199.39
2023-05-19T09:23:42.476Z,199.24
2023-05-19T09:24:42.499Z,198.66
2023-05-19T09:25:42.523Z,199.19
2023-05-19T09:26:42.526Z,198.34
2023-05-19T09:27:42.526Z,198.87
2023-05-19T09:28:42.538Z,196.90
2023-05-19T09:29:42.583Z,194.95
2023-05-19T09:30:42.613Z,195.24
2023-05-19T09:31:42.654Z,195.03
2023-05-19T09:32:43.560Z,192.14
2023-05-19T09:33:45.264Z,190.61
2023-05-19T09:34:42.656Z,192.67
2023-05-19T09:35:42.589Z,191.19
2023-05-19T09:36:42.618Z,190.60
2023-05-19T09:37:42.698Z,189.76
2023-05-19T09:38:42.576Z,187.68
2023-05-19T09:39:42.592Z,185.42
2023-05-19T09:40:42.571Z,185.57
2023-05-19T09:41:42.571Z,186.98
2023-05-19T09:42:42.545Z,186.48
2023-05-19T09:43:42.566Z,188.40
2023-05-19T09:44:42.506Z,187.67
2023-05-19T09:45:42.568Z,187.93
2023-05-19T09:46:42.652Z,189.03
2023-05-19T09:47:42.580Z,187.47
2023-05-19T09:48:42.588Z,188.49
2023-05-19T09:49:42.509Z,186.43
2023-05-19T09:50:42.498Z,184.81
2023-05-19T09:51:42.486Z,183.99
2023-05-19T09:52:42.486Z,184.47
2023-05-19T09:53:42.525Z,182.47
2023-05-19T09:54:42.464Z,181.54
2023-05-19T09:55:42.460Z,184.42
2023-05-19T09:56:42.466Z,181.77
2023-05-19T09:57:42.450Z,182.79
2023-05-19T09:58:42.428Z,183.30
2023-05-19T09:59:42.446Z,183.04
2023-05-19T10:00:42.427Z,181.34
2023-05-19T10:01:42.508Z,180.95
2023-05-19T10:02:42.474Z,181.49
2023-05-19T10:03:42.408Z,182.40
2023-05-19T10:04:42.438Z,182.25
2023-05-19T10:05:42.414Z,182.65
2023-05-19T10:06:42.404Z,182.48
2023-05-19T10:07:42.362Z,178.88
2023-05-19T10:08:42.453Z,179.86
2023-05-19T10:09:42.382Z,179.48
2023-05-19T10:10:42.342Z,177.06
2023-05-19T10:11:42.339Z,175.81
2023-05-19T10:12:42.372Z,175.93
2023-05-19T10:13:42.346Z,173.72
2023-05-19T10:14:42.367Z,172.91
2023-05-19T10:15:57.366Z,173.66
2023-05-19T10:16:43.329Z,173.77
2023-05-19T10:17:42.328Z,173.57
2023-05-19T10:18:42.335Z,173.62
2023-05-19T10:19:42.297Z,172.30
2023-05-19T10:20:42.277Z,169.80
2023-05-19T10:21:42.285Z,170.23
2023-05-19T10:22:42.253Z,168.40
2023-05-19T10:23:42.241Z,167.24
2023-05-19T10:24:42.270Z,163.90
2023-05-19T10:25:42.254Z,161.86
2023-05-19T10:26:42.276Z,162.26
2023-05-19T10:27:42.220Z,162.62
2023-05-19T10:28:42.234Z,166.43
2023-05-19T10:29:42.245Z,166.65
2023-05-19T10:30:42.219Z,169.74
2023-05-19T10:31:42.258Z,169.99
2023-05-19T10:32:42.234Z,171.11
2023-05-19T10:33:42.200Z,170.17
2023-05-19T10:34:42.220Z,171.22
2023-05-19T10:35:42.232Z,173.41
2023-05-19T10:36:42.250Z,174.09
2023-05-19T10:37:42.273Z,175.34
2023-05-19T10:38:42.363Z,175.43
2023-05-19T10:39:42.428Z,174.03
2023-05-19T10:40:42.471Z,177.43
2023-05-19T10:41:42.787Z,176.86
2023-05-19T10:42:42.595Z,176.94
2023-05-19T10:43:42.665Z,179.53
2023-05-19T10:44:42.720Z,179.74
2023-05-19T10:45:42.782Z,180.97
2023-05-19T10:46:42.924Z,179.21
2023-05-19T10:47:42.923Z,181.56
2023-05-19T10:48:42.984Z,179.69
2023-05-19T10:49:43.032Z,181.34
2023-05-19T10:50:43.086Z,180.02
2023-05-19T10:51:43.160Z,180.41
2023-05-19T10:52:43.214Z,180.75
2023-05-19T10:53:43.248Z,182.62
2023-05-19T10:54:43.429Z,184.31
2023-05-19T10:55:43.380Z,185.59
2023-05-19T10:56:43.502Z,184.44
2023-05-19T10:57:43.520Z,184.08
2023-05-19T10:58:43.637Z,185.67
2023-05-19T10:59:43.636Z,184.76
2023-05-19T11:00:43.714Z,186.85
2023-05-19T11:01:43.821Z,186.31
2023-05-19T11:02:43.912Z,186.23
2023-05-19T11:03:43.920Z,186.05
2023-05-19T11:04:43.925Z,185.66
2023-05-19T11:05:43.994Z,186.37
2023-05-19T11:06:44.081Z,187.27
2023-05-19T11:07:44.093Z,187.29
2023-05-19T11:08:44.159Z,186.90
2023-05-19T11:09:44.231Z,188.37
2023-05-19T11:10:44.309Z,183.01
2023-05-19T11:11:45.252Z,183.89
2023-05-19T11:12:44.360Z,182.23
2023-05-19T11:13:44.415Z,179.89
2023-05-19T11:14:45.269Z,178.04
2023-05-19T11:15:44.503Z,177.16
2023-05-19T11:16:44.548Z,176.60
2023-05-19T11:17:44.620Z,176.23
2023-05-19T11:18:44.627Z,176.96
2023-05-19T11:19:44.689Z,175.42
2023-05-19T11:20:44.732Z,176.29
2023-05-19T11:21:44.774Z,174.34
2023-05-19T11:22:44.808Z,173.11
2023-05-19T11:23:44.830Z,177.28
2023-05-19T11:24:44.851Z,176.31
2023-05-19T11:25:44.880Z,176.81
2023-05-19T11:26:44.933Z,176.63
2023-05-19T11:27:44.921Z,175.25
2023-05-19T11:28:44.963Z,175.29
2023-05-19T11:29:45.017Z,177.35
2023-05-19T11:30:45.048Z,177.40
2023-05-19T11:31:45.240Z,180.02
2023-05-19T11:32:45.196Z,179.84
2023-05-19T11:33:45.203Z,184.56
2023-05-19T11:34:45.222Z,182.13
2023-05-19T11:35:45.293Z,183.04
2023-05-19T11:36:45.363Z,184.36
2023-05-19T11:37:45.377Z,187.61
2023-05-19T11:38:45.427Z,187.27
2023-05-19T11:39:45.484Z,188.37
2023-05-19T11:40:45.480Z,187.35
2023-05-19T11:41:45.533Z,189.01
2023-05-19T11:42:45.587Z,186.75
2023-05-19T11:43:45.647Z,190.04
2023-05-19T11:44:45.662Z,190.00
2023-05-19T11:45:45.771Z,190.35
2023-05-19T11:46:45.817Z,189.90
2023-05-19T11:48:00.858Z,189.49
2023-05-19T11:48:46.836Z,189.62
2023-05-19T11:49:45.711Z,189.73
2023-05-19T11:50:45.736Z,189.71
2023-05-19T11:51:45.697Z,187.78
2023-05-19T11:52:45.735Z,187.82
2023-05-19T11:53:45.697Z,184.57
2023-05-19T11:54:45.706Z,185.14
2023-05-19T11:55:46.044Z,185.39
2023-05-19T11:56:45.669Z,185.92
2023-05-19T11:57:56.091Z,184.12
2023-05-19T11:58:46.683Z,184.18
2023-05-19T11:59:45.810Z,182.67
2023-05-19T12:00:45.681Z,184.26
2023-05-19T12:01:45.660Z,181.70
2023-05-19T12:02:45.805Z,181.35
2023-05-19T12:03:45.799Z,183.24
2023-05-19T12:04:45.705Z,186.33
2023-05-19T12:05:46.037Z,184.19
2023-05-19T12:06:45.669Z,181.32
2023-05-19T12:07:45.599Z,178.29
2023-05-19T12:08:45.606Z,180.75
2023-05-19T12:09:45.587Z,179.62
2023-05-19T12:10:45.599Z,179.48
2023-05-19T12:11:45.591Z,179.08
2023-05-19T12:12:45.558Z,180.63
2023-05-19T12:13:45.560Z,181.73
2023-05-19T12:14:45.574Z,180.73
2023-05-19T12:15:45.641Z,179.55
2023-05-19T12:16:45.651Z,180.43
2023-05-19T12:17:45.587Z,176.97
2023-05-19T12:18:45.587Z,178.05
2023-05-19T12:19:45.540Z,176.11
2023-05-19T12:20:45.520Z,173.68
2023-05-19T12:21:45.529Z,175.18
2023-05-19T12:22:45.566Z,175.74
2023-05-19T12:23:45.576Z,175.65
2023-05-19T12:24:45.576Z,175.48
2023-05-19T12:25:45.660Z,174.14
2023-05-19T12:26:45.636Z,174.84
2023-05-19T12:27:45.647Z,174.69
2023-05-19T12:28:45.633Z,176.99